Time;durP1;ratioP1;P1;durP2;ratioP2;P2;SDS_P1;SDS_P2;PMS_P1;PMS_P2;Temp;Humidity;BMP_temperature;BMP_pressure;BME280_temperature;BME280_humidity;BME280_pressure;Samples;Min_cycle;Max_cycle;Signal;HPM_P1;HPM_P2
2022/08/03 00:01:27;;;;;;;6.07;1.58;;;22.90;99.60;;;;;;5109563;28;20019;-34
2022/08/03 00:03:53;;;;;;;3.80;1.60;;;22.90;99.70;;;;;;5108396;28;20368;-36
2022/08/03 00:06:19;;;;;;;5.25;1.85;;;22.80;99.80;;;;;;5105377;28;20471;-36
2022/08/03 00:08:44;;;;;;;5.18;1.88;;;22.80;99.90;;;;;;5108550;28;20030;-36
2022/08/03 00:11:10;;;;;;;4.05;1.70;;;22.80;99.90;;;;;;5107834;28;20081;-33
2022/08/03 00:13:35;;;;;;;6.90;1.73;;;22.70;99.90;;;;;;5108615;28;20031;-34
2022/08/03 00:16:01;;;;;;;4.75;1.90;;;22.60;99.90;;;;;;5108916;28;20028;-35
2022/08/03 00:18:27;;;;;;;5.18;1.88;;;22.60;99.90;;;;;;5107677;28;20063;-34
2022/08/03 00:20:52;;;;;;;5.38;2.28;;;22.60;99.90;;;;;;5108081;28;20023;-36
2022/08/03 00:23:18;;;;;;;3.70;1.50;;;22.50;99.90;;;;;;5108810;28;20049;-36
2022/08/03 00:25:43;;;;;;;4.20;1.90;;;22.40;99.90;;;;;;5107201;28;20024;-36
2022/08/03 00:28:09;;;;;;;3.90;1.58;;;22.40;99.90;;;;;;5108938;28;20030;-36
2022/08/03 00:30:35;;;;;;;4.97;1.63;;;22.30;99.90;;;;;;5108567;28;20096;-35
2022/08/03 00:33:01;;;;;;;4.95;1.77;;;22.20;99.90;;;;;;5107460;28;20031;-34
2022/08/03 00:35:27;;;;;;;6.07;2.10;;;22.20;99.90;;;;;;5108503;28;20026;-35
2022/08/03 00:37:53;;;;;;;7.75;2.08;;;22.20;99.90;;;;;;5108277;28;20016;-34
2022/08/03 00:40:19;;;;;;;4.10;1.83;;;22.20;99.90;;;;;;5107691;28;20020;-36
2022/08/03 00:42:52;;;;;;;5.82;2.17;;;22.20;99.90;;;;;;5107917;28;20065;-36
2022/08/03 00:45:19;;;;;;;4.68;1.60;;;22.20;99.90;;;;;;5107783;28;20476;-37
2022/08/03 00:47:45;;;;;;;2.92;1.58;;;22.20;99.90;;;;;;5106745;28;20035;-35
2022/08/03 00:50:11;;;;;;;4.20;2.03;;;22.20;99.90;;;;;;5108471;28;20445;-35
2022/08/03 00:52:37;;;;;;;3.55;1.70;;;22.20;99.90;;;;;;5107761;28;20038;-35
2022/08/03 00:55:03;;;;;;;3.85;1.80;;;22.20;99.90;;;;;;5106551;28;20028;-36
2022/08/03 00:57:30;;;;;;;4.32;1.80;;;22.20;99.90;;;;;;5106843;28;20035;-34
2022/08/03 00:59:56;;;;;;;4.00;1.80;;;22.20;99.90;;;;;;5108098;28;20109;-34
2022/08/03 01:02:22;;;;;;;5.47;1.73;;;22.20;99.90;;;;;;5107431;28;20046;-35
2022/08/03 01:04:47;;;;;;;4.50;2.00;;;22.20;99.90;;;;;;5107229;28;20036;-35
2022/08/03 01:07:51;;;;;;;3.58;1.65;;;22.10;99.90;;;;;;5107163;28;20020;-35
2022/08/03 01:10:32;;;;;;;4.45;1.50;;;22.10;99.90;;;;;;5088397;28;20032;-34
2022/08/03 01:13:27;;;;;;;2.67;1.55;;;22.10;99.90;;;;;;5104606;28;20543;-34
2022/08/03 01:16:16;;;;;;;5.13;1.70;;;22.00;99.90;;;;;;5106735;28;20092;-34
2022/08/03 01:18:53;;;;;;;4.43;1.60;;;22.00;99.90;;;;;;5107202;28;20024;-35
2022/08/03 01:21:38;;;;;;;4.85;2.00;;;22.00;99.90;;;;;;5107117;28;20055;-35
2022/08/03 01:24:20;;;;;;;3.60;2.17;;;22.00;99.90;;;;;;5104774;28;20063;-34
2022/08/03 01:27:01;;;;;;;5.32;2.30;;;21.90;99.90;;;;;;5106842;28;20051;-36
2022/08/03 01:30:03;;;;;;;4.47;1.70;;;21.90;99.90;;;;;;5106377;28;20497;-35
2022/08/03 01:33:10;;;;;;;5.27;1.80;;;21.90;99.90;;;;;;5107342;28;20016;-35
2022/08/03 01:35:47;;;;;;;5.80;1.70;;;21.90;99.90;;;;;;5003744;28;20160;-35
2022/08/03 01:38:19;;;;;;;3.20;1.70;;;21.80;99.90;;;;;;5004765;28;20109;-35
2022/08/03 01:40:46;;;;;;;3.28;1.52;;;21.80;99.90;;;;;;5064069;28;20190;-35
2022/08/03 01:43:15;;;;;;;3.40;1.38;;;21.70;99.90;;;;;;5106167;28;20420;-34
2022/08/03 01:45:42;;;;;;;4.07;1.40;;;21.70;99.90;;;;;;5107007;28;20116;-34
2022/08/03 01:48:14;;;;;;;3.45;1.70;;;21.60;99.90;;;;;;5107145;28;20051;-34
2022/08/03 01:50:41;;;;;;;6.63;1.83;;;21.60;99.90;;;;;;5106366;28;20058;-34
2022/08/03 01:53:08;;;;;;;4.32;2.03;;;21.50;99.90;;;;;;5106351;28;20031;-35
2022/08/03 01:55:36;;;;;;;2.63;1.30;;;21.50;99.90;;;;;;5106329;28;20035;-35
2022/08/03 01:58:03;;;;;;;3.63;1.50;;;21.50;99.90;;;;;;5105852;28;20035;-35
2022/08/03 02:00:30;;;;;;;4.75;1.65;;;21.50;99.90;;;;;;5106859;28;20105;-34
2022/08/03 02:02:57;;;;;;;4.13;1.70;;;21.50;99.90;;;;;;5106396;28;20491;-35
2022/08/03 02:05:25;;;;;;;5.03;1.90;;;21.50;99.90;;;;;;5104785;28;20055;-34
2022/08/03 02:07:51;;;;;;;3.63;1.73;;;21.50;99.90;;;;;;5106024;28;20410;-35
2022/08/03 02:10:19;;;;;;;6.93;1.90;;;21.50;99.90;;;;;;5106522;28;20555;-35
2022/08/03 02:12:48;;;;;;;2.42;1.67;;;21.60;99.90;;;;;;5105701;28;20172;-35
2022/08/03 02:15:17;;;;;;;5.97;2.80;;;21.50;99.90;;;;;;5107214;28;20126;-34
2022/08/03 02:17:45;;;;;;;2.63;1.90;;;21.50;99.90;;;;;;5105922;28;20107;-35
2022/08/03 02:20:13;;;;;;;5.25;1.90;;;21.50;99.90;;;;;;5106526;28;20027;-33
2022/08/03 02:22:40;;;;;;;4.50;2.00;;;21.50;99.90;;;;;;5085311;28;20024;-34
2022/08/03 02:25:08;;;;;;;4.45;1.90;;;21.50;99.90;;;;;;5099735;28;20016;-34
2022/08/03 02:27:34;;;;;;;4.07;1.73;;;21.50;99.90;;;;;;5106199;28;20039;-34
2022/08/03 02:30:08;;;;;;;4.75;1.88;;;21.50;99.90;;;;;;5105975;28;20050;-34
2022/08/03 02:32:37;;;;;;;4.25;1.88;;;21.50;99.90;;;;;;5104943;28;20027;-35
2022/08/03 02:35:08;;;;;;;7.75;2.35;;;21.50;99.90;;;;;;5105507;28;20475;-35
2022/08/03 02:37:40;;;;;;;2.58;1.60;;;21.40;99.90;;;;;;5106475;28;20536;-35
2022/08/03 02:40:08;;;;;;;3.65;1.88;;;21.50;99.90;;;;;;5105279;28;20098;-35
2022/08/03 02:42:36;;;;;;;2.67;1.63;;;21.40;99.90;;;;;;5106010;28;20034;-34
2022/08/03 02:45:06;;;;;;;4.22;1.80;;;21.40;99.90;;;;;;5106044;28;20609;-35
2022/08/03 02:47:35;;;;;;;5.00;2.00;;;21.40;99.90;;;;;;5104850;28;20019;-35
2022/08/03 02:50:01;;;;;;;5.63;1.90;;;21.40;99.90;;;;;;5105500;28;20028;-35
2022/08/03 02:52:29;;;;;;;2.50;1.60;;;21.40;99.90;;;;;;5104609;28;20104;-35
2022/08/03 02:54:58;;;;;;;5.10;1.75;;;21.30;99.90;;;;;;5089871;28;20043;-36
2022/08/03 02:57:30;;;;;;;4.10;1.85;;;21.30;99.90;;;;;;5105675;28;20023;-35
2022/08/03 02:59:57;;;;;;;5.07;1.85;;;21.30;99.90;;;;;;5104743;28;20042;-33
2022/08/03 03:02:23;;;;;;;5.25;2.45;;;21.30;99.90;;;;;;5105985;28;20011;-36
2022/08/03 03:04:51;;;;;;;4.32;1.90;;;21.20;99.90;;;;;;5105621;28;20024;-35
2022/08/03 03:07:19;;;;;;;5.07;1.92;;;21.20;99.90;;;;;;5105052;28;20068;-34
2022/08/03 03:09:45;;;;;;;2.50;1.70;;;21.10;99.90;;;;;;5105296;28;20109;-34
2022/08/03 03:12:12;;;;;;;3.85;1.67;;;21.20;99.90;;;;;;5105260;28;20073;-35
2022/08/03 03:14:38;;;;;;;4.63;1.67;;;21.10;99.90;;;;;;5104652;28;20036;-34
2022/08/03 03:17:05;;;;;;;5.53;2.00;;;21.10;99.90;;;;;;5107454;28;20016;-35
2022/08/03 03:19:33;;;;;;;3.95;1.95;;;21.10;99.90;;;;;;5089828;28;20118;-34
2022/08/03 03:22:03;;;;;;;7.38;1.80;;;21.00;99.90;;;;;;5103303;28;20425;-35
2022/08/03 03:24:29;;;;;;;2.83;1.65;;;21.00;99.90;;;;;;5110559;28;20038;-33
2022/08/03 03:26:55;;;;;;;4.30;1.98;;;21.00;99.90;;;;;;5109432;28;20047;-33
2022/08/03 03:29:21;;;;;;;3.05;1.90;;;21.00;99.90;;;;;;5109291;28;20445;-36
2022/08/03 03:31:48;;;;;;;5.30;2.08;;;21.00;99.90;;;;;;5109570;28;20078;-35
2022/08/03 03:34:14;;;;;;;3.83;1.80;;;20.90;99.90;;;;;;5109862;28;20035;-34
2022/08/03 03:36:39;;;;;;;3.70;2.03;;;20.90;99.90;;;;;;5108703;28;20027;-34
2022/08/03 03:39:05;;;;;;;5.22;2.15;;;20.90;99.90;;;;;;5109385;28;20494;-34
2022/08/03 03:41:31;;;;;;;4.63;2.03;;;20.90;99.90;;;;;;5109934;28;20459;-35
2022/08/03 03:43:57;;;;;;;7.75;2.15;;;20.90;99.90;;;;;;5108292;28;20360;-34
2022/08/03 03:46:22;;;;;;;4.80;2.20;;;20.80;99.90;;;;;;5109209;28;20487;-36
2022/08/03 03:48:48;;;;;;;4.55;2.08;;;20.80;99.90;;;;;;5109038;28;20035;-36
2022/08/03 03:51:14;;;;;;;3.15;1.60;;;20.80;99.90;;;;;;5108748;28;20495;-35
2022/08/03 03:53:41;;;;;;;6.05;2.00;;;20.70;99.90;;;;;;5108684;28;20387;-35
2022/08/03 03:56:06;;;;;;;5.15;2.00;;;20.80;99.90;;;;;;5108809;28;20051;-34
2022/08/03 03:58:32;;;;;;;4.97;2.30;;;20.70;99.90;;;;;;5108493;28;20054;-34
2022/08/03 04:00:58;;;;;;;6.72;1.98;;;20.70;99.90;;;;;;5109283;28;20016;-35
2022/08/03 04:03:24;;;;;;;5.20;2.10;;;20.70;99.90;;;;;;5108749;28;20020;-33
2022/08/03 04:11:27;;;;;;;4.32;2.13;;;20.70;99.90;;;;;;5087709;28;20411;-35
2022/08/03 04:14:03;;;;;;;3.92;2.10;;;20.70;99.90;;;;;;5104749;28;20036;-36
2022/08/03 04:16:36;;;;;;;5.28;1.85;;;20.60;99.90;;;;;;5109377;28;20031;-33
2022/08/03 04:19:07;;;;;;;4.65;2.50;;;20.60;99.90;;;;;;5107988;28;20024;-35
2022/08/03 04:21:35;;;;;;;5.38;2.65;;;20.60;99.90;;;;;;5109150;28;20145;-36
2022/08/03 04:24:03;;;;;;;3.85;2.55;;;20.70;99.90;;;;;;5108482;28;20043;-34
2022/08/03 04:26:31;;;;;;;4.95;2.28;;;20.60;99.90;;;;;;5108705;28;20452;-34
2022/08/03 04:28:59;;;;;;;4.10;2.30;;;20.60;99.90;;;;;;5108332;28;20019;-36
2022/08/03 04:31:26;;;;;;;5.70;2.10;;;20.70;99.90;;;;;;5108377;28;20024;-35
2022/08/03 04:33:53;;;;;;;6.35;2.53;;;20.70;99.90;;;;;;5107963;28;20027;-36
2022/08/03 04:36:25;;;;;;;4.20;2.40;;;20.70;99.90;;;;;;5108604;28;20546;-35
2022/08/03 04:39:03;;;;;;;6.50;2.33;;;20.70;99.90;;;;;;5107649;28;20039;-34
2022/08/03 04:41:30;;;;;;;4.70;2.78;;;20.70;99.90;;;;;;5108485;28;20388;-36
2022/08/03 04:43:57;;;;;;;5.25;2.50;;;20.80;99.90;;;;;;5108306;28;20096;-35
2022/08/03 04:46:27;;;;;;;3.13;2.17;;;20.70;99.90;;;;;;5107792;28;20023;-35
2022/08/03 04:48:53;;;;;;;4.25;2.58;;;20.80;99.90;;;;;;5107712;28;20301;-35
2022/08/03 04:51:19;;;;;;;3.72;2.33;;;20.80;99.90;;;;;;5108109;28;20466;-34
2022/08/03 04:53:44;;;;;;;3.25;2.28;;;20.80;99.90;;;;;;5106661;28;20034;-33
2022/08/03 04:56:10;;;;;;;4.22;2.28;;;20.80;99.90;;;;;;5107883;28;20026;-32
2022/08/03 04:58:36;;;;;;;4.35;2.53;;;20.80;99.90;;;;;;5107546;28;20031;-34
2022/08/03 05:01:01;;;;;;;4.40;2.58;;;20.90;99.90;;;;;;5106776;28;20020;-35
2022/08/03 05:03:27;;;;;;;5.35;2.80;;;20.90;99.90;;;;;;5107953;28;20032;-34
2022/08/03 05:05:54;;;;;;;5.63;2.53;;;20.90;99.90;;;;;;5107721;28;20047;-33
2022/08/03 05:08:19;;;;;;;2.80;2.40;;;20.90;99.90;;;;;;5107688;28;20023;-36
2022/08/03 05:10:45;;;;;;;4.28;2.45;;;20.80;99.90;;;;;;5107167;28;20074;-34
2022/08/03 05:13:12;;;;;;;4.93;2.80;;;20.80;99.90;;;;;;5108277;28;20404;-35
2022/08/03 05:15:38;;;;;;;3.70;3.00;;;20.80;99.90;;;;;;5107320;28;20020;-35
2022/08/03 05:18:04;;;;;;;4.68;3.05;;;20.90;99.90;;;;;;5108029;28;20051;-34
2022/08/03 05:20:29;;;;;;;3.45;2.85;;;20.90;99.90;;;;;;5106297;28;20055;-34
2022/08/03 05:22:55;;;;;;;4.38;2.67;;;20.80;99.90;;;;;;5107930;28;20015;-35
2022/08/03 05:25:21;;;;;;;6.18;2.63;;;20.80;99.90;;;;;;5107562;28;20027;-35
2022/08/03 05:27:47;;;;;;;5.78;3.08;;;20.80;99.90;;;;;;5106416;28;20043;-37
2022/08/03 05:30:12;;;;;;;6.03;3.20;;;20.80;99.90;;;;;;5107898;28;20020;-35
2022/08/03 05:32:38;;;;;;;4.85;3.03;;;20.80;99.90;;;;;;5107468;28;20390;-34
2022/08/03 05:35:04;;;;;;;7.07;3.78;;;20.80;99.90;;;;;;5105034;28;20514;-34
2022/08/03 05:37:29;;;;;;;4.68;2.67;;;20.80;99.90;;;;;;5103101;28;20115;-34
2022/08/03 05:39:55;;;;;;;6.00;3.20;;;20.80;99.90;;;;;;5105429;28;20027;-35
2022/08/03 05:42:20;;;;;;;4.40;2.72;;;20.80;99.90;;;;;;5104249;28;20085;-35
2022/08/03 05:44:46;;;;;;;8.02;3.08;;;20.80;99.90;;;;;;5106090;28;20451;-34
2022/08/03 05:47:11;;;;;;;6.70;2.83;;;20.80;99.90;;;;;;5106150;28;20459;-36
2022/08/03 05:49:37;;;;;;;5.35;3.08;;;20.80;99.90;;;;;;5104945;28;20032;-34
2022/08/03 05:52:03;;;;;;;5.80;2.78;;;20.90;99.90;;;;;;5105712;28;20565;-34
2022/08/03 05:54:28;;;;;;;4.32;2.80;;;20.90;99.90;;;;;;5105901;28;20047;-35
2022/08/03 05:56:54;;;;;;;3.97;2.65;;;20.90;99.90;;;;;;5104614;28;20027;-35
2022/08/03 05:59:20;;;;;;;6.03;3.30;;;20.90;99.90;;;;;;5106277;28;20055;-35
2022/08/03 06:01:46;;;;;;;6.38;2.97;;;21.00;99.90;;;;;;5104994;28;20030;-37
2022/08/03 06:04:12;;;;;;;6.88;3.08;;;21.00;99.90;;;;;;5105311;28;20027;-35
2022/08/03 06:06:38;;;;;;;5.35;3.05;;;21.10;99.90;;;;;;5105529;28;20019;-36
2022/08/03 06:09:03;;;;;;;5.47;2.78;;;21.10;99.90;;;;;;5105225;28;20529;-33
2022/08/03 06:11:29;;;;;;;3.17;2.60;;;21.10;99.90;;;;;;5104060;28;20031;-34
2022/08/03 06:13:55;;;;;;;4.10;2.50;;;21.20;99.90;;;;;;5105036;28;20103;-35
2022/08/03 06:16:20;;;;;;;3.75;2.35;;;21.20;99.90;;;;;;5105877;28;20115;-35
2022/08/03 06:18:46;;;;;;;4.10;2.28;;;21.20;99.90;;;;;;5104589;28;20035;-35
2022/08/03 06:21:11;;;;;;;5.45;2.67;;;21.30;99.90;;;;;;5106066;28;20326;-35
2022/08/03 06:23:37;;;;;;;4.13;2.30;;;21.30;99.90;;;;;;5104996;28;20012;-36
2022/08/03 06:26:03;;;;;;;5.07;2.50;;;21.40;99.90;;;;;;5105207;28;20088;-34
2022/08/03 06:28:28;;;;;;;3.80;2.28;;;21.40;99.90;;;;;;5106095;28;20386;-35
2022/08/03 06:30:54;;;;;;;4.00;2.20;;;21.40;99.90;;;;;;5084650;28;20492;-35
2022/08/03 06:33:20;;;;;;;3.42;2.40;;;21.40;99.90;;;;;;5099769;28;20378;-36
2022/08/03 06:35:45;;;;;;;4.63;2.17;;;21.50;99.90;;;;;;5106696;28;20020;-36
2022/08/03 06:38:11;;;;;;;5.22;2.50;;;21.50;99.90;;;;;;5105241;28;20432;-35
2022/08/03 06:40:40;;;;;;;3.67;2.50;;;21.60;99.90;;;;;;5106097;28;20572;-35
2022/08/03 06:43:06;;;;;;;6.80;2.80;;;21.60;99.90;;;;;;5105505;28;20481;-35
2022/08/03 06:45:32;;;;;;;5.38;2.83;;;21.70;99.90;;;;;;5104645;28;20023;-35
2022/08/03 06:48:02;;;;;;;6.35;2.80;;;21.70;99.90;;;;;;5105895;28;20026;-36
2022/08/03 06:50:27;;;;;;;5.50;2.33;;;21.80;99.90;;;;;;5105610;28;20039;-35
2022/08/03 06:52:53;;;;;;;3.88;2.35;;;21.80;99.90;;;;;;5104480;28;20030;-35
2022/08/03 06:55:19;;;;;;;5.25;2.42;;;21.90;99.90;;;;;;5105991;28;20023;-35
2022/08/03 06:57:44;;;;;;;6.00;2.17;;;21.90;99.90;;;;;;5104811;28;20368;-34
2022/08/03 07:00:10;;;;;;;5.97;2.10;;;21.90;99.90;;;;;;5105043;28;20031;-34
2022/08/03 07:02:36;;;;;;;6.03;2.38;;;22.00;99.90;;;;;;5105735;28;20148;-36
2022/08/03 07:05:02;;;;;;;6.07;2.38;;;22.10;99.90;;;;;;5105620;28;20624;-34
2022/08/03 07:07:28;;;;;;;6.35;2.33;;;22.10;99.90;;;;;;5104906;28;20051;-36
2022/08/03 07:09:54;;;;;;;4.20;2.22;;;22.10;99.90;;;;;;5105544;28;20464;-34
2022/08/03 07:12:19;;;;;;;3.42;1.83;;;22.20;99.90;;;;;;5105882;28;20027;-35
2022/08/03 07:14:45;;;;;;;6.90;1.98;;;22.30;99.90;;;;;;5103691;28;20125;-36
2022/08/03 07:17:10;;;;;;;4.82;1.90;;;22.30;99.90;;;;;;5105892;28;20019;-36
2022/08/03 07:19:36;;;;;;;8.43;2.40;;;22.30;99.90;;;;;;5105010;28;20156;-36
2022/08/03 07:22:02;;;;;;;5.10;2.22;;;22.40;99.90;;;;;;5104891;28;20386;-35
2022/08/03 07:24:28;;;;;;;6.43;2.10;;;22.40;99.90;;;;;;5105311;28;20055;-35
2022/08/03 07:26:54;;;;;;;4.43;1.75;;;22.50;99.90;;;;;;5103833;28;20129;-34
2022/08/03 07:29:20;;;;;;;5.30;2.13;;;22.50;99.90;;;;;;5104681;28;20054;-34
2022/08/03 07:31:46;;;;;;;4.18;1.80;;;22.60;99.90;;;;;;5105514;28;20023;-36
2022/08/03 07:34:11;;;;;;;3.45;1.85;;;22.60;99.90;;;;;;5104166;28;20027;-35
2022/08/03 07:36:37;;;;;;;3.75;1.55;;;22.70;99.90;;;;;;5105032;28;20144;-35
2022/08/03 07:39:03;;;;;;;6.35;2.10;;;22.70;99.90;;;;;;5104897;28;21007;-34
2022/08/03 07:41:28;;;;;;;4.30;1.80;;;22.70;99.90;;;;;;5104606;28;20011;-35
2022/08/03 07:43:54;;;;;;;5.32;1.60;;;22.80;99.90;;;;;;5105174;28;20027;-38
2022/08/03 07:46:19;;;;;;;5.22;1.92;;;22.80;99.90;;;;;;5105779;28;20027;-37
2022/08/03 07:48:45;;;;;;;5.07;1.88;;;22.80;99.90;;;;;;5104079;28;20571;-33
2022/08/03 07:51:10;;;;;;;7.05;1.77;;;22.80;99.90;;;;;;5104947;28;20379;-35
2022/08/03 07:53:36;;;;;;;4.68;1.70;;;22.80;99.90;;;;;;5105090;28;20027;-35
2022/08/03 07:56:01;;;;;;;4.40;1.77;;;22.90;99.90;;;;;;5104214;28;20115;-35
2022/08/03 07:58:27;;;;;;;3.70;1.42;;;22.90;99.90;;;;;;5104457;28;20020;-34
2022/08/03 08:00:52;;;;;;;8.55;2.10;;;22.90;99.90;;;;;;5104806;28;20019;-34
2022/08/03 08:03:20;;;;;;;7.90;2.03;;;23.00;99.90;;;;;;5104075;28;20474;-37
2022/08/03 08:05:46;;;;;;;3.15;1.27;;;23.00;99.90;;;;;;5108159;28;20103;-35
2022/08/03 08:08:11;;;;;;;5.78;1.55;;;23.10;99.90;;;;;;5109143;28;20026;-35
2022/08/03 08:10:37;;;;;;;6.28;1.88;;;23.10;99.90;;;;;;5107475;28;20108;-36
2022/08/03 08:13:03;;;;;;;6.63;1.70;;;23.20;99.90;;;;;;5108627;28;20489;-35
2022/08/03 08:15:30;;;;;;;4.72;1.70;;;23.20;99.90;;;;;;5108627;28;20023;-35
2022/08/03 08:17:58;;;;;;;6.50;1.80;;;23.30;99.90;;;;;;5107952;28;20022;-34
2022/08/03 08:20:26;;;;;;;12.02;2.22;;;23.30;99.90;;;;;;5108014;28;20027;-35
2022/08/03 08:22:55;;;;;;;3.95;1.60;;;23.40;99.90;;;;;;5108320;28;20497;-37
2022/08/03 08:25:21;;;;;;;4.50;2.15;;;23.50;99.90;;;;;;5107980;28;20112;-35
2022/08/03 08:27:48;;;;;;;6.88;2.15;;;23.50;99.90;;;;;;5107718;28;20073;-33
2022/08/03 08:30:15;;;;;;;6.78;1.70;;;23.50;99.90;;;;;;5108003;28;20024;-35
2022/08/03 08:32:41;;;;;;;4.95;1.77;;;23.60;99.90;;;;;;5105062;28;20036;-36
2022/08/03 08:35:11;;;;;;;4.35;1.70;;;23.60;99.90;;;;;;5108738;28;20031;-37
2022/08/03 08:37:36;;;;;;;3.75;1.35;;;23.70;99.90;;;;;;5107088;28;20019;-36
2022/08/03 08:40:03;;;;;;;5.85;1.80;;;23.70;99.90;;;;;;5107783;28;20313;-33
2022/08/03 08:42:31;;;;;;;5.47;1.98;;;23.80;99.90;;;;;;5108436;28;20030;-35
2022/08/03 08:44:57;;;;;;;7.15;1.70;;;23.80;99.90;;;;;;5107353;28;20094;-37
2022/08/03 08:47:24;;;;;;;10.63;2.70;;;23.90;99.90;;;;;;5108218;28;20057;-36
2022/08/03 08:49:54;;;;;;;7.18;1.77;;;23.90;99.90;;;;;;5107920;28;20027;-35
2022/08/03 08:52:27;;;;;;;6.60;1.55;;;24.00;99.90;;;;;;5106570;28;20096;-36
2022/08/03 08:54:58;;;;;;;5.45;1.85;;;24.10;99.90;;;;;;5107607;28;20063;-34
2022/08/03 08:57:30;;;;;;;7.57;1.60;;;24.10;99.90;;;;;;5108765;28;20016;-35
2022/08/03 08:59:56;;;;;;;3.13;1.33;;;24.20;99.90;;;;;;5107087;28;20049;-36
2022/08/03 09:02:23;;;;;;;5.18;1.63;;;24.20;99.90;;;;;;5107002;28;20126;-35
2022/08/03 09:04:49;;;;;;;4.32;1.70;;;24.30;99.90;;;;;;5107555;28;20555;-35
2022/08/03 09:07:16;;;;;;;2.80;1.25;;;24.30;99.90;;;;;;5107831;28;20207;-35
2022/08/03 09:09:42;;;;;;;6.07;1.70;;;24.30;99.90;;;;;;5108363;28;20019;-36
2022/08/03 09:12:08;;;;;;;7.70;2.55;;;24.40;99.90;;;;;;5108224;28;20015;-36
2022/08/03 09:14:40;;;;;;;2.78;1.38;;;24.40;99.90;;;;;;5106663;28;20077;-36
2022/08/03 09:17:05;;;;;;;;;;;24.50;99.90;;;;;;5108575;28;20034;-34
2022/08/03 09:19:33;;;;;;;7.07;1.50;;;24.60;99.90;;;;;;5106730;28;20255;-36
2022/08/03 09:22:19;;;;;;;4.53;1.40;;;24.60;99.90;;;;;;5108017;28;20471;-34
2022/08/03 09:24:55;;;;;;;5.47;1.60;;;24.70;99.90;;;;;;5106174;28;20475;-33
2022/08/03 09:27:21;;;;;;;6.95;1.88;;;24.80;99.90;;;;;;5106828;28;20044;-35
2022/08/03 09:29:51;;;;;;;7.30;2.45;;;24.90;99.80;;;;;;5106329;28;20028;-34
2022/08/03 09:32:21;;;;;;;3.95;1.50;;;24.90;99.70;;;;;;5108067;28;20475;-35
2022/08/03 09:34:49;;;;;;;6.22;1.80;;;25.00;99.60;;;;;;5105763;28;20039;-35
2022/08/03 09:37:16;;;;;;;6.30;1.52;;;25.10;99.40;;;;;;5107198;28;20023;-34
2022/08/03 09:39:42;;;;;;;9.18;1.80;;;25.20;99.30;;;;;;5106831;28;20035;-35
2022/08/03 09:42:09;;;;;;;5.10;1.48;;;25.20;99.30;;;;;;5106467;28;20023;-36
2022/08/03 09:44:42;;;;;;;4.75;1.65;;;25.30;99.10;;;;;;5106810;28;20023;-35
2022/08/03 09:47:09;;;;;;;3.70;1.52;;;25.40;99.00;;;;;;5107404;28;20534;-34
2022/08/03 09:49:36;;;;;;;6.90;1.63;;;25.50;98.80;;;;;;5105569;28;20034;-35
2022/08/03 09:52:13;;;;;;;5.60;1.50;;;25.60;98.60;;;;;;5107071;28;20142;-34
2022/08/03 09:54:39;;;;;;;12.07;2.00;;;25.70;98.50;;;;;;5104666;28;20040;-35
2022/08/03 09:57:05;;;;;;;4.65;2.08;;;25.70;98.20;;;;;;5106546;28;20024;-34
2022/08/03 09:59:32;;;;;;;5.88;1.40;;;25.80;98.10;;;;;;5106054;28;20030;-34
2022/08/03 10:01:58;;;;;;;3.47;1.60;;;25.90;98.10;;;;;;5105909;28;20357;-36
2022/08/03 10:04:24;;;;;;;4.82;1.50;;;25.90;98.00;;;;;;5106331;28;20130;-35
2022/08/03 10:07:09;;;;;;;6.22;1.42;;;25.90;97.80;;;;;;5106365;28;20482;-35
2022/08/03 10:09:36;;;;;;;3.88;1.60;;;25.90;97.70;;;;;;5105720;28;20092;-35
2022/08/03 10:12:13;;;;;;;6.55;1.88;;;25.90;97.60;;;;;;5103863;28;20063;-35
2022/08/03 10:14:40;;;;;;;4.40;1.27;;;25.90;97.50;;;;;;5106071;28;20569;-34
2022/08/03 10:17:06;;;;;;;5.10;1.35;;;26.00;97.40;;;;;;5105421;28;20107;-36
2022/08/03 10:19:32;;;;;;;4.18;1.25;;;26.00;97.30;;;;;;5105549;28;20103;-36
2022/08/03 10:22:09;;;;;;;5.50;1.50;;;26.10;97.30;;;;;;5106687;28;20023;-35
2022/08/03 10:24:36;;;;;;;6.07;1.40;;;26.10;97.30;;;;;;5105415;28;20036;-35
2022/08/03 10:27:05;;;;;;;3.33;1.20;;;26.10;97.20;;;;;;5104744;28;20406;-34
2022/08/03 10:29:37;;;;;;;4.68;1.27;;;26.20;97.20;;;;;;5105240;28;20023;-37
2022/08/03 10:32:09;;;;;;;6.00;1.75;;;26.20;97.10;;;;;;5105184;28;20020;-36
2022/08/03 10:34:38;;;;;;;6.45;1.48;;;26.30;97.00;;;;;;5106349;28;20058;-36
2022/08/03 10:37:10;;;;;;;5.88;1.67;;;26.30;96.70;;;;;;5104932;28;20080;-37
2022/08/03 10:39:36;;;;;;;3.72;1.70;;;26.40;96.50;;;;;;5105990;28;20024;-36
2022/08/03 10:42:04;;;;;;;6.22;1.55;;;26.50;96.50;;;;;;5105751;28;20049;-36
2022/08/03 10:44:39;;;;;;;4.82;1.70;;;26.60;96.40;;;;;;5105461;28;20031;-36
2022/08/03 10:47:04;;;;;;;4.47;1.60;;;26.60;96.30;;;;;;5105812;28;20115;-35
2022/08/03 10:49:31;;;;;;;4.20;1.52;;;26.60;96.30;;;;;;5106395;28;20111;-36
2022/08/03 10:51:56;;;;;;;4.07;1.45;;;26.70;96.20;;;;;;5105246;28;20020;-35
2022/08/03 10:57:52;;;;;;;4.88;1.30;;;26.70;96.00;;;;;;5106585;28;20394;-37
2022/08/03 11:00:22;;;;;;;6.40;1.75;;;26.80;95.80;;;;;;5085478;28;20022;-34
2022/08/03 11:03:10;;;;;;;9.68;2.00;;;26.90;95.20;;;;;;5103419;28;20027;-35
2022/08/03 11:05:45;;;;;;;7.40;1.60;;;27.00;94.70;;;;;;5105859;28;20016;-34
2022/08/03 11:08:17;;;;;;;3.00;1.08;;;27.00;94.40;;;;;;5106036;28;20011;-35
2022/08/03 11:10:43;;;;;;;5.40;1.80;;;27.10;94.40;;;;;;5103237;28;20023;-35
2022/08/03 11:13:11;;;;;;;3.88;1.30;;;27.10;94.40;;;;;;5103949;28;20024;-34
2022/08/03 11:15:37;;;;;;;4.35;1.25;;;27.20;94.10;;;;;;5104830;28;20024;-35
2022/08/03 11:18:09;;;;;;;4.53;1.60;;;27.20;94.10;;;;;;5104753;28;20324;-35
2022/08/03 11:20:52;;;;;;;5.05;1.35;;;27.30;93.80;;;;;;5104048;28;20039;-36
2022/08/03 11:23:41;;;;;;;5.88;1.73;;;27.40;93.80;;;;;;5104643;28;20020;-35
2022/08/03 11:26:16;;;;;;;4.10;1.48;;;27.40;93.70;;;;;;5083111;28;20089;-35
2022/08/03 11:28:44;;;;;;;4.45;1.10;;;27.40;93.50;;;;;;5103156;28;20126;-34
2022/08/03 11:31:33;;;;;;;3.75;1.10;;;27.50;93.50;;;;;;5104429;28;20360;-35
2022/08/03 11:34:06;;;;;;;4.40;1.35;;;27.50;93.10;;;;;;5089803;28;20077;-36
2022/08/03 11:37:09;;;;;;;2.80;1.20;;;27.50;93.00;;;;;;5104423;28;20391;-35
2022/08/03 11:39:44;;;;;;;5.10;1.30;;;27.60;92.80;;;;;;5103306;28;20058;-35
2022/08/03 11:42:22;;;;;;;3.78;1.20;;;27.70;92.20;;;;;;5108147;28;20035;-34
2022/08/03 11:44:49;;;;;;;2.67;1.15;;;27.80;91.90;;;;;;5104942;28;20030;-35
2022/08/03 11:47:16;;;;;;;7.38;1.63;;;27.80;91.70;;;;;;5108566;28;20043;-35
2022/08/03 11:49:45;;;;;;;4.53;1.05;;;27.90;91.40;;;;;;5108279;28;20020;-35
2022/08/03 11:52:11;;;;;;;3.00;1.20;;;27.90;91.20;;;;;;5108618;28;20030;-36
2022/08/03 11:54:38;;;;;;;3.03;1.00;;;27.90;91.20;;;;;;5107389;28;20039;-36
2022/08/03 11:57:04;;;;;;;3.95;1.40;;;27.80;91.10;;;;;;5108104;28;20028;-35
2022/08/03 11:59:33;;;;;;;4.93;1.00;;;27.90;91.10;;;;;;5107808;28;20531;-36
2022/08/03 12:02:10;;;;;;;4.78;1.30;;;27.90;91.10;;;;;;5087355;28;20031;-35
2022/08/03 12:04:52;;;;;;;5.88;1.30;;;27.90;90.90;;;;;;5103528;28;20482;-36
2022/08/03 12:07:19;;;;;;;4.47;1.92;;;28.10;90.40;;;;;;5088609;28;20028;-36
2022/08/03 12:10:11;;;;;;;6.88;1.75;;;28.20;90.40;;;;;;5103284;28;20550;-34
2022/08/03 12:12:38;;;;;;;4.45;1.50;;;28.30;89.70;;;;;;5088243;28;20515;-35
2022/08/03 12:15:05;;;;;;;4.70;1.42;;;28.30;89.30;;;;;;5105075;28;20642;-34
2022/08/03 12:17:36;;;;;;;5.13;1.95;;;28.30;89.10;;;;;;5104645;28;20020;-34
2022/08/03 12:20:03;;;;;;;4.80;1.10;;;28.40;88.70;;;;;;5108393;28;20108;-36
2022/08/03 12:22:32;;;;;;;6.53;1.58;;;28.50;88.20;;;;;;5107730;28;20024;-34
2022/08/03 12:24:58;;;;;;;4.35;1.42;;;28.50;87.80;;;;;;5108992;28;20050;-35
2022/08/03 12:27:25;;;;;;;4.85;1.48;;;28.60;87.90;;;;;;5108220;28;20043;-36
2022/08/03 12:29:56;;;;;;;3.60;1.17;;;28.60;87.80;;;;;;5107513;28;20027;-35
2022/08/03 12:32:22;;;;;;;6.53;1.92;;;28.70;87.50;;;;;;5108891;28;20049;-35
2022/08/03 12:34:48;;;;;;;2.85;1.00;;;28.70;86.60;;;;;;5107945;28;20508;-36
2022/08/03 12:37:21;;;;;;;4.95;1.67;;;28.80;85.90;;;;;;5107840;28;20020;-35
2022/08/03 12:39:55;;;;;;;4.18;1.38;;;28.80;85.20;;;;;;5107910;28;20098;-34
2022/08/03 12:42:28;;;;;;;5.20;1.73;;;28.90;84.80;;;;;;5108978;28;20011;-34
2022/08/03 12:44:54;;;;;;;5.07;1.30;;;28.90;84.10;;;;;;5107262;28;20028;-37
2022/08/03 12:47:19;;;;;;;3.08;1.10;;;28.90;84.00;;;;;;5108027;28;20115;-37
2022/08/03 12:49:45;;;;;;;2.40;0.80;;;28.90;84.10;;;;;;5106929;28;20117;-35
2022/08/03 12:52:11;;;;;;;3.65;1.00;;;28.90;84.10;;;;;;5107477;28;20490;-34
2022/08/03 12:54:37;;;;;;;2.25;1.00;;;29.00;83.90;;;;;;5107679;28;20039;-36
2022/08/03 12:57:10;;;;;;;2.28;0.77;;;29.00;83.50;;;;;;5107789;28;20165;-35
2022/08/03 12:59:41;;;;;;;2.13;0.80;;;29.20;83.60;;;;;;5106752;28;20033;-35
2022/08/03 13:02:19;;;;;;;5.23;1.50;;;29.20;83.30;;;;;;5107300;28;20106;-35
2022/08/03 13:04:46;;;;;;;7.15;1.38;;;29.30;82.40;;;;;;5107361;28;20269;-36